sensor_id;sensor_type;location;lat;lon;timestamp;P1;durP1;ratioP1;P2;durP2;ratioP2
15595;SDS011;7898;48.658;9.068;2023-10-13T00:00:48;6.70;;;4.72;;
15595;SDS011;7898;48.658;9.068;2023-10-13T00:03:22;8.68;;;4.63;;
15595;SDS011;7898;48.658;9.068;2023-10-13T00:05:50;8.57;;;4.45;;
15595;SDS011;7898;48.658;9.068;2023-10-13T00:08:18;6.07;;;4.38;;
15595;SDS011;7898;48.658;9.068;2023-10-13T00:10:45;9.45;;;4.35;;
15595;SDS011;7898;48.658;9.068;2023-10-13T00:13:13;8.00;;;4.97;;
15595;SDS011;7898;48.658;9.068;2023-10-13T00:15:41;8.95;;;4.50;;
15595;SDS011;7898;48.658;9.068;2023-10-13T00:18:23;9.60;;;4.60;;
15595;SDS011;7898;48.658;9.068;2023-10-13T00:20:51;8.07;;;4.25;;
15595;SDS011;7898;48.658;9.068;2023-10-13T00:23:21;10.02;;;4.80;;
15595;SDS011;7898;48.658;9.068;2023-10-13T00:25:51;7.07;;;4.35;;
15595;SDS011;7898;48.658;9.068;2023-10-13T00:28:24;7.53;;;3.85;;
15595;SDS011;7898;48.658;9.068;2023-10-13T00:30:52;10.20;;;4.30;;
15595;SDS011;7898;48.658;9.068;2023-10-13T00:33:26;6.82;;;3.75;;
15595;SDS011;7898;48.658;9.068;2023-10-13T00:35:57;8.65;;;4.22;;
15595;SDS011;7898;48.658;9.068;2023-10-13T00:38:26;7.25;;;4.50;;
15595;SDS011;7898;48.658;9.068;2023-10-13T00:40:52;7.18;;;4.38;;
15595;SDS011;7898;48.658;9.068;2023-10-13T00:43:20;12.32;;;4.70;;
15595;SDS011;7898;48.658;9.068;2023-10-13T00:46:05;7.65;;;4.35;;
15595;SDS011;7898;48.658;9.068;2023-10-13T00:48:35;9.50;;;3.95;;
15595;SDS011;7898;48.658;9.068;2023-10-13T00:51:08;8.98;;;4.55;;
15595;SDS011;7898;48.658;9.068;2023-10-13T00:53:43;8.77;;;4.40;;
15595;SDS011;7898;48.658;9.068;2023-10-13T00:56:12;8.35;;;4.55;;
15595;SDS011;7898;48.658;9.068;2023-10-13T00:58:44;7.90;;;3.97;;
15595;SDS011;7898;48.658;9.068;2023-10-13T01:01:15;8.63;;;4.47;;
15595;SDS011;7898;48.658;9.068;2023-10-13T01:03:48;9.90;;;4.55;;
15595;SDS011;7898;48.658;9.068;2023-10-13T01:06:20;5.22;;;3.80;;
15595;SDS011;7898;48.658;9.068;2023-10-13T01:08:56;12.15;;;4.10;;
15595;SDS011;7898;48.658;9.068;2023-10-13T01:11:24;7.28;;;4.55;;
15595;SDS011;7898;48.658;9.068;2023-10-13T01:13:52;9.30;;;4.32;;
15595;SDS011;7898;48.658;9.068;2023-10-13T01:16:19;5.70;;;4.45;;
15595;SDS011;7898;48.658;9.068;2023-10-13T01:18:50;13.10;;;4.70;;
15595;SDS011;7898;48.658;9.068;2023-10-13T01:21:16;7.30;;;4.25;;
15595;SDS011;7898;48.658;9.068;2023-10-13T01:23:46;7.22;;;4.10;;
15595;SDS011;7898;48.658;9.068;2023-10-13T01:26:15;7.07;;;4.63;;
15595;SDS011;7898;48.658;9.068;2023-10-13T01:28:46;7.40;;;4.50;;
15595;SDS011;7898;48.658;9.068;2023-10-13T01:31:15;10.50;;;3.97;;
15595;SDS011;7898;48.658;9.068;2023-10-13T01:33:49;8.52;;;4.55;;
15595;SDS011;7898;48.658;9.068;2023-10-13T01:36:20;8.13;;;4.57;;
15595;SDS011;7898;48.658;9.068;2023-10-13T01:38:48;7.70;;;4.70;;
15595;SDS011;7898;48.658;9.068;2023-10-13T01:41:16;8.43;;;4.90;;
15595;SDS011;7898;48.658;9.068;2023-10-13T01:43:43;7.07;;;4.65;;
15595;SDS011;7898;48.658;9.068;2023-10-13T01:46:10;6.43;;;4.38;;
15595;SDS011;7898;48.658;9.068;2023-10-13T01:48:38;7.00;;;4.35;;
15595;SDS011;7898;48.658;9.068;2023-10-13T01:51:06;8.00;;;4.55;;
15595;SDS011;7898;48.658;9.068;2023-10-13T01:53:35;5.88;;;4.35;;
15595;SDS011;7898;48.658;9.068;2023-10-13T01:56:04;8.43;;;5.78;;
15595;SDS011;7898;48.658;9.068;2023-10-13T01:58:35;9.75;;;4.80;;
15595;SDS011;7898;48.658;9.068;2023-10-13T02:01:03;10.30;;;4.85;;
15595;SDS011;7898;48.658;9.068;2023-10-13T02:03:29;8.30;;;4.80;;
15595;SDS011;7898;48.658;9.068;2023-10-13T02:05:56;9.40;;;4.55;;
15595;SDS011;7898;48.658;9.068;2023-10-13T02:08:28;5.90;;;4.25;;
15595;SDS011;7898;48.658;9.068;2023-10-13T02:10:56;6.32;;;4.82;;
15595;SDS011;7898;48.658;9.068;2023-10-13T02:13:24;8.98;;;4.78;;
15595;SDS011;7898;48.658;9.068;2023-10-13T02:15:54;8.88;;;5.13;;
15595;SDS011;7898;48.658;9.068;2023-10-13T02:18:21;8.85;;;4.85;;
15595;SDS011;7898;48.658;9.068;2023-10-13T02:20:52;9.95;;;5.15;;
15595;SDS011;7898;48.658;9.068;2023-10-13T02:23:20;7.78;;;4.88;;
15595;SDS011;7898;48.658;9.068;2023-10-13T02:25:48;9.55;;;5.03;;
15595;SDS011;7898;48.658;9.068;2023-10-13T02:28:17;7.18;;;4.65;;
15595;SDS011;7898;48.658;9.068;2023-10-13T02:30:54;7.03;;;5.18;;
15595;SDS011;7898;48.658;9.068;2023-10-13T02:33:22;6.80;;;4.45;;
15595;SDS011;7898;48.658;9.068;2023-10-13T02:35:54;9.75;;;4.60;;
15595;SDS011;7898;48.658;9.068;2023-10-13T02:38:21;8.07;;;5.07;;
15595;SDS011;7898;48.658;9.068;2023-10-13T02:40:53;8.82;;;5.07;;
15595;SDS011;7898;48.658;9.068;2023-10-13T02:43:23;10.85;;;5.50;;
15595;SDS011;7898;48.658;9.068;2023-10-13T02:45:52;8.88;;;4.72;;
15595;SDS011;7898;48.658;9.068;2023-10-13T02:48:24;8.15;;;4.93;;
15595;SDS011;7898;48.658;9.068;2023-10-13T02:50:56;11.90;;;5.03;;
15595;SDS011;7898;48.658;9.068;2023-10-13T02:53:27;9.43;;;5.32;;
15595;SDS011;7898;48.658;9.068;2023-10-13T02:55:55;7.25;;;5.15;;
15595;SDS011;7898;48.658;9.068;2023-10-13T02:58:29;10.50;;;5.18;;
15595;SDS011;7898;48.658;9.068;2023-10-13T03:01:06;10.63;;;5.38;;
15595;SDS011;7898;48.658;9.068;2023-10-13T03:03:46;5.93;;;4.50;;
15595;SDS011;7898;48.658;9.068;2023-10-13T03:06:15;10.93;;;5.43;;
15595;SDS011;7898;48.658;9.068;2023-10-13T03:08:46;9.32;;;4.93;;
15595;SDS011;7898;48.658;9.068;2023-10-13T03:11:12;8.05;;;5.13;;
15595;SDS011;7898;48.658;9.068;2023-10-13T03:13:39;8.30;;;4.43;;
15595;SDS011;7898;48.658;9.068;2023-10-13T03:16:14;9.50;;;5.50;;
15595;SDS011;7898;48.658;9.068;2023-10-13T03:18:45;9.27;;;5.30;;
15595;SDS011;7898;48.658;9.068;2023-10-13T03:21:19;7.25;;;5.05;;
15595;SDS011;7898;48.658;9.068;2023-10-13T03:23:58;9.85;;;5.30;;
15595;SDS011;7898;48.658;9.068;2023-10-13T03:26:31;9.20;;;5.10;;
15595;SDS011;7898;48.658;9.068;2023-10-13T03:29:01;10.07;;;5.00;;
15595;SDS011;7898;48.658;9.068;2023-10-13T03:31:30;11.77;;;5.82;;
15595;SDS011;7898;48.658;9.068;2023-10-13T03:34:02;9.55;;;5.32;;
15595;SDS011;7898;48.658;9.068;2023-10-13T03:36:34;7.30;;;5.13;;
15595;SDS011;7898;48.658;9.068;2023-10-13T03:39:22;7.07;;;4.78;;
15595;SDS011;7898;48.658;9.068;2023-10-13T03:41:56;10.88;;;6.07;;
15595;SDS011;7898;48.658;9.068;2023-10-13T03:44:24;8.10;;;5.00;;
15595;SDS011;7898;48.658;9.068;2023-10-13T03:46:57;10.85;;;5.50;;
15595;SDS011;7898;48.658;9.068;2023-10-13T03:49:33;11.27;;;5.93;;
15595;SDS011;7898;48.658;9.068;2023-10-13T03:52:03;6.47;;;4.88;;
15595;SDS011;7898;48.658;9.068;2023-10-13T03:54:31;10.90;;;5.30;;
15595;SDS011;7898;48.658;9.068;2023-10-13T03:57:00;11.02;;;5.15;;
15595;SDS011;7898;48.658;9.068;2023-10-13T03:59:36;8.75;;;4.95;;
15595;SDS011;7898;48.658;9.068;2023-10-13T04:02:04;9.88;;;5.75;;
15595;SDS011;7898;48.658;9.068;2023-10-13T04:04:37;9.38;;;4.97;;
15595;SDS011;7898;48.658;9.068;2023-10-13T04:07:13;10.47;;;5.20;;
15595;SDS011;7898;48.658;9.068;2023-10-13T04:09:54;8.10;;;5.35;;
15595;SDS011;7898;48.658;9.068;2023-10-13T04:13:05;9.00;;;4.88;;
15595;SDS011;7898;48.658;9.068;2023-10-13T04:15:58;9.95;;;5.57;;
15595;SDS011;7898;48.658;9.068;2023-10-13T04:19:00;8.40;;;5.32;;
15595;SDS011;7898;48.658;9.068;2023-10-13T04:21:44;8.87;;;5.60;;
15595;SDS011;7898;48.658;9.068;2023-10-13T04:24:22;8.88;;;6.00;;
15595;SDS011;7898;48.658;9.068;2023-10-13T04:27:02;9.30;;;6.03;;
15595;SDS011;7898;48.658;9.068;2023-10-13T04:29:55;10.37;;;5.87;;
15595;SDS011;7898;48.658;9.068;2023-10-13T04:32:35;10.18;;;6.63;;
15595;SDS011;7898;48.658;9.068;2023-10-13T04:35:05;10.53;;;6.40;;
15595;SDS011;7898;48.658;9.068;2023-10-13T04:37:42;9.52;;;6.15;;
15595;SDS011;7898;48.658;9.068;2023-10-13T04:40:19;12.40;;;5.87;;
15595;SDS011;7898;48.658;9.068;2023-10-13T04:42:49;8.20;;;6.13;;
15595;SDS011;7898;48.658;9.068;2023-10-13T04:45:19;7.55;;;5.88;;
15595;SDS011;7898;48.658;9.068;2023-10-13T04:48:05;10.75;;;5.88;;
15595;SDS011;7898;48.658;9.068;2023-10-13T04:51:00;7.68;;;5.65;;
15595;SDS011;7898;48.658;9.068;2023-10-13T04:53:44;9.32;;;5.97;;
15595;SDS011;7898;48.658;9.068;2023-10-13T04:56:29;12.68;;;8.05;;
15595;SDS011;7898;48.658;9.068;2023-10-13T04:59:13;9.25;;;7.13;;
15595;SDS011;7898;48.658;9.068;2023-10-13T05:02:00;12.93;;;6.80;;
15595;SDS011;7898;48.658;9.068;2023-10-13T05:04:44;11.23;;;6.87;;
15595;SDS011;7898;48.658;9.068;2023-10-13T05:07:48;9.33;;;7.53;;
15595;SDS011;7898;48.658;9.068;2023-10-13T05:10:47;11.30;;;7.25;;
15595;SDS011;7898;48.658;9.068;2023-10-13T05:13:31;12.32;;;6.18;;
15595;SDS011;7898;48.658;9.068;2023-10-13T05:16:15;7.70;;;6.13;;
15595;SDS011;7898;48.658;9.068;2023-10-13T05:18:59;12.17;;;6.23;;
15595;SDS011;7898;48.658;9.068;2023-10-13T05:21:40;12.63;;;6.70;;
15595;SDS011;7898;48.658;9.068;2023-10-13T05:24:25;10.18;;;5.88;;
15595;SDS011;7898;48.658;9.068;2023-10-13T05:27:10;10.30;;;6.30;;
15595;SDS011;7898;48.658;9.068;2023-10-13T05:29:54;10.13;;;6.67;;
15595;SDS011;7898;48.658;9.068;2023-10-13T05:32:39;10.75;;;5.85;;
15595;SDS011;7898;48.658;9.068;2023-10-13T05:35:24;9.87;;;5.90;;
15595;SDS011;7898;48.658;9.068;2023-10-13T05:38:08;11.48;;;5.78;;
15595;SDS011;7898;48.658;9.068;2023-10-13T05:40:54;9.57;;;7.27;;
15595;SDS011;7898;48.658;9.068;2023-10-13T05:43:39;8.77;;;6.03;;
15595;SDS011;7898;48.658;9.068;2023-10-13T05:46:23;9.03;;;6.17;;
15595;SDS011;7898;48.658;9.068;2023-10-13T05:49:26;9.03;;;6.10;;
15595;SDS011;7898;48.658;9.068;2023-10-13T05:52:10;7.72;;;5.55;;
15595;SDS011;7898;48.658;9.068;2023-10-13T05:55:05;7.63;;;5.50;;
15595;SDS011;7898;48.658;9.068;2023-10-13T05:57:56;8.77;;;6.23;;
15595;SDS011;7898;48.658;9.068;2023-10-13T06:00:41;8.07;;;5.80;;
15595;SDS011;7898;48.658;9.068;2023-10-13T06:03:25;10.80;;;5.78;;
15595;SDS011;7898;48.658;9.068;2023-10-13T06:06:09;10.68;;;6.70;;
15595;SDS011;7898;48.658;9.068;2023-10-13T06:08:53;12.98;;;5.88;;
15595;SDS011;7898;48.658;9.068;2023-10-13T06:11:37;11.27;;;5.70;;
15595;SDS011;7898;48.658;9.068;2023-10-13T06:14:23;13.25;;;7.00;;
15595;SDS011;7898;48.658;9.068;2023-10-13T06:17:07;11.85;;;6.63;;
15595;SDS011;7898;48.658;9.068;2023-10-13T06:19:50;14.98;;;6.28;;
15595;SDS011;7898;48.658;9.068;2023-10-13T06:22:35;11.82;;;5.88;;
15595;SDS011;7898;48.658;9.068;2023-10-13T06:25:19;8.60;;;6.03;;
15595;SDS011;7898;48.658;9.068;2023-10-13T06:28:04;12.50;;;5.78;;
15595;SDS011;7898;48.658;9.068;2023-10-13T06:30:58;14.10;;;5.78;;
15595;SDS011;7898;48.658;9.068;2023-10-13T06:33:26;15.63;;;5.85;;
15595;SDS011;7898;48.658;9.068;2023-10-13T06:35:55;10.73;;;6.22;;
15595;SDS011;7898;48.658;9.068;2023-10-13T06:38:23;12.40;;;5.57;;
15595;SDS011;7898;48.658;9.068;2023-10-13T06:40:55;13.10;;;6.68;;
15595;SDS011;7898;48.658;9.068;2023-10-13T06:43:23;15.52;;;6.53;;
15595;SDS011;7898;48.658;9.068;2023-10-13T06:45:49;8.75;;;5.53;;
15595;SDS011;7898;48.658;9.068;2023-10-13T06:48:23;10.00;;;5.78;;
15595;SDS011;7898;48.658;9.068;2023-10-13T06:50:51;6.22;;;5.60;;
15595;SDS011;7898;48.658;9.068;2023-10-13T06:53:20;11.40;;;5.93;;
15595;SDS011;7898;48.658;9.068;2023-10-13T06:55:47;9.93;;;5.57;;
15595;SDS011;7898;48.658;9.068;2023-10-13T06:58:17;8.95;;;5.32;;
15595;SDS011;7898;48.658;9.068;2023-10-13T07:00:49;16.13;;;5.82;;
15595;SDS011;7898;48.658;9.068;2023-10-13T07:03:20;8.57;;;5.70;;
15595;SDS011;7898;48.658;9.068;2023-10-13T07:05:49;10.93;;;5.45;;
15595;SDS011;7898;48.658;9.068;2023-10-13T07:08:17;7.20;;;5.28;;
15595;SDS011;7898;48.658;9.068;2023-10-13T07:10:49;13.45;;;5.68;;
15595;SDS011;7898;48.658;9.068;2023-10-13T07:13:26;7.57;;;4.55;;
15595;SDS011;7898;48.658;9.068;2023-10-13T07:15:54;10.68;;;5.55;;
15595;SDS011;7898;48.658;9.068;2023-10-13T07:18:27;7.30;;;5.25;;
15595;SDS011;7898;48.658;9.068;2023-10-13T07:21:02;7.03;;;5.25;;
15595;SDS011;7898;48.658;9.068;2023-10-13T07:23:35;11.40;;;5.10;;
15595;SDS011;7898;48.658;9.068;2023-10-13T07:26:02;7.63;;;5.40;;
15595;SDS011;7898;48.658;9.068;2023-10-13T07:28:29;8.98;;;5.05;;
15595;SDS011;7898;48.658;9.068;2023-10-13T07:31:01;10.15;;;6.00;;
15595;SDS011;7898;48.658;9.068;2023-10-13T07:33:41;8.40;;;5.15;;
15595;SDS011;7898;48.658;9.068;2023-10-13T07:36:09;8.73;;;4.78;;
15595;SDS011;7898;48.658;9.068;2023-10-13T07:38:43;8.05;;;5.05;;
15595;SDS011;7898;48.658;9.068;2023-10-13T07:41:13;7.70;;;4.47;;
15595;SDS011;7898;48.658;9.068;2023-10-13T07:43:42;11.55;;;5.25;;
15595;SDS011;7898;48.658;9.068;2023-10-13T07:46:10;8.02;;;4.60;;
15595;SDS011;7898;48.658;9.068;2023-10-13T07:48:37;6.95;;;4.45;;
15595;SDS011;7898;48.658;9.068;2023-10-13T07:51:06;7.18;;;4.50;;
15595;SDS011;7898;48.658;9.068;2023-10-13T07:53:37;10.10;;;4.32;;
15595;SDS011;7898;48.658;9.068;2023-10-13T07:56:08;12.50;;;4.68;;
15595;SDS011;7898;48.658;9.068;2023-10-13T07:58:37;6.80;;;3.85;;
15595;SDS011;7898;48.658;9.068;2023-10-13T08:01:17;9.45;;;3.95;;
15595;SDS011;7898;48.658;9.068;2023-10-13T08:03:44;7.35;;;4.00;;
15595;SDS011;7898;48.658;9.068;2023-10-13T08:06:12;7.68;;;4.32;;
15595;SDS011;7898;48.658;9.068;2023-10-13T08:08:52;6.78;;;4.03;;
15595;SDS011;7898;48.658;9.068;2023-10-13T08:11:20;9.15;;;4.30;;
15595;SDS011;7898;48.658;9.068;2023-10-13T08:13:59;11.20;;;4.40;;
15595;SDS011;7898;48.658;9.068;2023-10-13T08:16:36;7.47;;;3.88;;
15595;SDS011;7898;48.658;9.068;2023-10-13T08:19:18;7.80;;;4.15;;
15595;SDS011;7898;48.658;9.068;2023-10-13T08:21:46;10.15;;;4.18;;
15595;SDS011;7898;48.658;9.068;2023-10-13T08:24:18;6.70;;;3.70;;
15595;SDS011;7898;48.658;9.068;2023-10-13T08:26:53;10.30;;;4.80;;
15595;SDS011;7898;48.658;9.068;2023-10-13T08:29:23;8.50;;;3.70;;
15595;SDS011;7898;48.658;9.068;2023-10-13T08:32:07;5.20;;;3.17;;
15595;SDS011;7898;48.658;9.068;2023-10-13T08:34:46;8.52;;;4.25;;
15595;SDS011;7898;48.658;9.068;2023-10-13T08:37:35;5.32;;;3.30;;
15595;SDS011;7898;48.658;9.068;2023-10-13T08:40:13;6.90;;;3.80;;
15595;SDS011;7898;48.658;9.068;2023-10-13T08:43:06;8.05;;;3.90;;
15595;SDS011;7898;48.658;9.068;2023-10-13T08:45:37;7.40;;;3.80;;
15595;SDS011;7898;48.658;9.068;2023-10-13T08:48:24;9.13;;;3.72;;
15595;SDS011;7898;48.658;9.068;2023-10-13T08:51:00;7.10;;;3.53;;
15595;SDS011;7898;48.658;9.068;2023-10-13T08:53:35;6.97;;;3.88;;
15595;SDS011;7898;48.658;9.068;2023-10-13T08:56:12;6.13;;;3.25;;
15595;SDS011;7898;48.658;9.068;2023-10-13T08:58:43;7.80;;;3.47;;
15595;SDS011;7898;48.658;9.068;2023-10-13T09:01:32;7.82;;;3.67;;
15595;SDS011;7898;48.658;9.068;2023-10-13T09:04:05;9.23;;;3.92;;
15595;SDS011;7898;48.658;9.068;2023-10-13T09:06:47;10.05;;;4.00;;
15595;SDS011;7898;48.658;9.068;2023-10-13T09:09:33;7.45;;;3.40;;
15595;SDS011;7898;48.658;9.068;2023-10-13T09:12:28;8.00;;;3.90;;
15595;SDS011;7898;48.658;9.068;2023-10-13T09:15:04;6.57;;;3.55;;
15595;SDS011;7898;48.658;9.068;2023-10-13T09:17:43;10.60;;;4.25;;
15595;SDS011;7898;48.658;9.068;2023-10-13T09:20:17;8.55;;;3.28;;
15595;SDS011;7898;48.658;9.068;2023-10-13T09:22:58;7.47;;;3.95;;
15595;SDS011;7898;48.658;9.068;2023-10-13T09:25:35;8.93;;;3.85;;
15595;SDS011;7898;48.658;9.068;2023-10-13T09:28:04;6.70;;;3.88;;
15595;SDS011;7898;48.658;9.068;2023-10-13T09:30:43;9.20;;;3.70;;
15595;SDS011;7898;48.658;9.068;2023-10-13T09:33:09;9.50;;;3.47;;
15595;SDS011;7898;48.658;9.068;2023-10-13T09:35:41;9.15;;;3.60;;
15595;SDS011;7898;48.658;9.068;2023-10-13T09:38:08;8.35;;;3.72;;
15595;SDS011;7898;48.658;9.068;2023-10-13T09:40:37;5.10;;;3.22;;
15595;SDS011;7898;48.658;9.068;2023-10-13T09:43:04;11.82;;;3.20;;
15595;SDS011;7898;48.658;9.068;2023-10-13T09:45:32;7.88;;;3.47;;
15595;SDS011;7898;48.658;9.068;2023-10-13T09:48:02;5.32;;;3.10;;
15595;SDS011;7898;48.658;9.068;2023-10-13T09:50:32;11.55;;;3.75;;
15595;SDS011;7898;48.658;9.068;2023-10-13T09:53:06;6.35;;;3.50;;
15595;SDS011;7898;48.658;9.068;2023-10-13T09:55:35;9.15;;;3.65;;
15595;SDS011;7898;48.658;9.068;2023-10-13T09:58:11;7.45;;;3.20;;
15595;SDS011;7898;48.658;9.068;2023-10-13T10:00:45;13.50;;;3.65;;
15595;SDS011;7898;48.658;9.068;2023-10-13T10:03:14;8.27;;;3.65;;
15595;SDS011;7898;48.658;9.068;2023-10-13T10:05:55;8.00;;;3.42;;
15595;SDS011;7898;48.658;9.068;2023-10-13T10:08:28;6.63;;;3.38;;
15595;SDS011;7898;48.658;9.068;2023-10-13T10:14:09;8.10;;;4.07;;
15595;SDS011;7898;48.658;9.068;2023-10-13T10:16:45;9.20;;;3.42;;
15595;SDS011;7898;48.658;9.068;2023-10-13T10:19:24;6.28;;;3.65;;
15595;SDS011;7898;48.658;9.068;2023-10-13T10:22:00;5.88;;;3.40;;
15595;SDS011;7898;48.658;9.068;2023-10-13T10:24:31;8.55;;;3.45;;
15595;SDS011;7898;48.658;9.068;2023-10-13T10:27:01;6.47;;;3.20;;
15595;SDS011;7898;48.658;9.068;2023-10-13T10:29:31;6.82;;;3.10;;
15595;SDS011;7898;48.658;9.068;2023-10-13T10:31:59;6.15;;;3.40;;
15595;SDS011;7898;48.658;9.068;2023-10-13T10:34:31;5.70;;;3.10;;
15595;SDS011;7898;48.658;9.068;2023-10-13T10:37:00;8.20;;;3.05;;
15595;SDS011;7898;48.658;9.068;2023-10-13T10:39:34;7.03;;;3.67;;
15595;SDS011;7898;48.658;9.068;2023-10-13T10:42:10;4.35;;;3.10;;
15595;SDS011;7898;48.658;9.068;2023-10-13T10:44:50;8.43;;;3.38;;
15595;SDS011;7898;48.658;9.068;2023-10-13T10:47:23;8.45;;;3.25;;
15595;SDS011;7898;48.658;9.068;2023-10-13T10:49:58;7.03;;;3.33;;
15595;SDS011;7898;48.658;9.068;2023-10-13T10:52:26;9.57;;;3.38;;
15595;SDS011;7898;48.658;9.068;2023-10-13T10:55:02;5.70;;;3.60;;
15595;SDS011;7898;48.658;9.068;2023-10-13T10:57:32;5.88;;;3.40;;
15595;SDS011;7898;48.658;9.068;2023-10-13T11:00:04;9.70;;;3.42;;
15595;SDS011;7898;48.658;9.068;2023-10-13T11:02:39;7.47;;;3.30;;
15595;SDS011;7898;48.658;9.068;2023-10-13T11:05:06;14.32;;;3.97;;
15595;SDS011;7898;48.658;9.068;2023-10-13T11:07:34;9.10;;;3.55;;
15595;SDS011;7898;48.658;9.068;2023-10-13T11:10:08;5.38;;;3.25;;
15595;SDS011;7898;48.658;9.068;2023-10-13T11:12:53;5.35;;;3.08;;
15595;SDS011;7898;48.658;9.068;2023-10-13T11:15:22;7.32;;;3.92;;
15595;SDS011;7898;48.658;9.068;2023-10-13T11:17:58;12.68;;;4.00;;
15595;SDS011;7898;48.658;9.068;2023-10-13T11:20:25;9.15;;;3.38;;
15595;SDS011;7898;48.658;9.068;2023-10-13T11:22:58;7.68;;;3.35;;
15595;SDS011;7898;48.658;9.068;2023-10-13T11:25:30;6.13;;;3.22;;
15595;SDS011;7898;48.658;9.068;2023-10-13T11:28:09;6.25;;;3.38;;
15595;SDS011;7898;48.658;9.068;2023-10-13T11:30:43;7.82;;;3.33;;
15595;SDS011;7898;48.658;9.068;2023-10-13T11:33:14;9.93;;;3.50;;
15595;SDS011;7898;48.658;9.068;2023-10-13T11:35:44;6.03;;;2.75;;
15595;SDS011;7898;48.658;9.068;2023-10-13T11:38:31;5.55;;;3.05;;
15595;SDS011;7898;48.658;9.068;2023-10-13T11:41:08;10.05;;;3.65;;
15595;SDS011;7898;48.658;9.068;2023-10-13T11:43:38;4.75;;;3.10;;
15595;SDS011;7898;48.658;9.068;2023-10-13T11:46:19;8.10;;;3.45;;
15595;SDS011;7898;48.658;9.068;2023-10-13T11:49:05;4.53;;;3.20;;
15595;SDS011;7898;48.658;9.068;2023-10-13T11:51:43;7.80;;;3.55;;
15595;SDS011;7898;48.658;9.068;2023-10-13T11:54:11;8.38;;;3.72;;
15595;SDS011;7898;48.658;9.068;2023-10-13T11:56:38;10.15;;;3.38;;
15595;SDS011;7898;48.658;9.068;2023-10-13T11:59:05;5.00;;;3.13;;
15595;SDS011;7898;48.658;9.068;2023-10-13T12:01:42;6.18;;;3.63;;
15595;SDS011;7898;48.658;9.068;2023-10-13T12:04:27;7.63;;;3.47;;
15595;SDS011;7898;48.658;9.068;2023-10-13T12:06:58;5.88;;;3.35;;
15595;SDS011;7898;48.658;9.068;2023-10-13T12:09:39;9.10;;;3.83;;
15595;SDS011;7898;48.658;9.068;2023-10-13T12:12:17;7.47;;;3.33;;
15595;SDS011;7898;48.658;9.068;2023-10-13T12:14:44;9.75;;;3.50;;
15595;SDS011;7898;48.658;9.068;2023-10-13T12:17:21;6.05;;;3.25;;
15595;SDS011;7898;48.658;9.068;2023-10-13T12:19:53;5.63;;;2.90;;
15595;SDS011;7898;48.658;9.068;2023-10-13T12:22:22;7.68;;;3.25;;
15595;SDS011;7898;48.658;9.068;2023-10-13T12:24:53;5.90;;;3.67;;
15595;SDS011;7898;48.658;9.068;2023-10-13T12:27:20;10.30;;;3.83;;
15595;SDS011;7898;48.658;9.068;2023-10-13T12:29:53;6.65;;;3.47;;
15595;SDS011;7898;48.658;9.068;2023-10-13T12:32:23;6.80;;;3.95;;
15595;SDS011;7898;48.658;9.068;2023-10-13T12:34:50;7.55;;;3.10;;
15595;SDS011;7898;48.658;9.068;2023-10-13T12:37:25;7.32;;;3.60;;
15595;SDS011;7898;48.658;9.068;2023-10-13T12:40:15;7.32;;;3.38;;
15595;SDS011;7898;48.658;9.068;2023-10-13T12:43:01;7.57;;;3.17;;
15595;SDS011;7898;48.658;9.068;2023-10-13T12:45:46;5.68;;;3.00;;
15595;SDS011;7898;48.658;9.068;2023-10-13T12:48:33;4.00;;;3.20;;
15595;SDS011;7898;48.658;9.068;2023-10-13T12:51:18;4.68;;;3.30;;
15595;SDS011;7898;48.658;9.068;2023-10-13T12:54:02;8.00;;;3.50;;
15595;SDS011;7898;48.658;9.068;2023-10-13T12:56:31;6.90;;;3.40;;
15595;SDS011;7898;48.658;9.068;2023-10-13T12:58:58;8.15;;;3.30;;
15595;SDS011;7898;48.658;9.068;2023-10-13T13:01:25;7.57;;;3.10;;
15595;SDS011;7898;48.658;9.068;2023-10-13T13:03:59;5.72;;;3.22;;
15595;SDS011;7898;48.658;9.068;2023-10-13T13:06:28;3.72;;;2.88;;
15595;SDS011;7898;48.658;9.068;2023-10-13T13:08:56;6.97;;;3.05;;
15595;SDS011;7898;48.658;9.068;2023-10-13T13:11:24;6.32;;;3.10;;
15595;SDS011;7898;48.658;9.068;2023-10-13T13:13:53;5.72;;;2.97;;
15595;SDS011;7898;48.658;9.068;2023-10-13T13:16:20;5.25;;;2.92;;
15595;SDS011;7898;48.658;9.068;2023-10-13T13:18:49;4.50;;;3.08;;
15595;SDS011;7898;48.658;9.068;2023-10-13T13:21:17;6.00;;;3.30;;
15595;SDS011;7898;48.658;9.068;2023-10-13T13:23:48;8.68;;;2.95;;
15595;SDS011;7898;48.658;9.068;2023-10-13T13:26:15;6.78;;;3.20;;
15595;SDS011;7898;48.658;9.068;2023-10-13T13:28:42;4.63;;;3.05;;
15595;SDS011;7898;48.658;9.068;2023-10-13T13:31:09;9.60;;;3.25;;
15595;SDS011;7898;48.658;9.068;2023-10-13T13:33:37;6.43;;;3.10;;
15595;SDS011;7898;48.658;9.068;2023-10-13T13:36:08;4.85;;;3.78;;
15595;SDS011;7898;48.658;9.068;2023-10-13T13:38:40;4.68;;;3.00;;
15595;SDS011;7898;48.658;9.068;2023-10-13T13:41:11;7.13;;;2.97;;
15595;SDS011;7898;48.658;9.068;2023-10-13T13:43:41;4.47;;;3.30;;
15595;SDS011;7898;48.658;9.068;2023-10-13T13:46:20;7.80;;;3.67;;
15595;SDS011;7898;48.658;9.068;2023-10-13T13:48:50;6.45;;;3.35;;
15595;SDS011;7898;48.658;9.068;2023-10-13T13:51:23;8.52;;;3.10;;
15595;SDS011;7898;48.658;9.068;2023-10-13T13:53:54;7.53;;;3.20;;
15595;SDS011;7898;48.658;9.068;2023-10-13T13:56:22;6.13;;;3.25;;
15595;SDS011;7898;48.658;9.068;2023-10-13T13:58:50;5.00;;;3.00;;
15595;SDS011;7898;48.658;9.068;2023-10-13T14:01:18;5.60;;;2.97;;
15595;SDS011;7898;48.658;9.068;2023-10-13T14:03:47;6.90;;;2.90;;
15595;SDS011;7898;48.658;9.068;2023-10-13T14:06:16;5.78;;;3.05;;
15595;SDS011;7898;48.658;9.068;2023-10-13T14:08:46;7.55;;;3.67;;
15595;SDS011;7898;48.658;9.068;2023-10-13T14:11:17;7.68;;;3.15;;
15595;SDS011;7898;48.658;9.068;2023-10-13T14:14:08;4.80;;;2.67;;
15595;SDS011;7898;48.658;9.068;2023-10-13T14:16:37;6.15;;;2.80;;
15595;SDS011;7898;48.658;9.068;2023-10-13T14:19:09;5.22;;;2.97;;
15595;SDS011;7898;48.658;9.068;2023-10-13T14:21:36;6.05;;;2.85;;
15595;SDS011;7898;48.658;9.068;2023-10-13T14:24:04;8.48;;;3.13;;
15595;SDS011;7898;48.658;9.068;2023-10-13T14:26:41;5.82;;;2.90;;
15595;SDS011;7898;48.658;9.068;2023-10-13T14:29:09;7.55;;;3.25;;
15595;SDS011;7898;48.658;9.068;2023-10-13T14:31:39;6.75;;;2.95;;
15595;SDS011;7898;48.658;9.068;2023-10-13T14:34:06;7.18;;;2.85;;
15595;SDS011;7898;48.658;9.068;2023-10-13T14:36:33;4.35;;;2.58;;
15595;SDS011;7898;48.658;9.068;2023-10-13T14:39:00;4.57;;;2.95;;
15595;SDS011;7898;48.658;9.068;2023-10-13T14:41:28;6.40;;;2.45;;
15595;SDS011;7898;48.658;9.068;2023-10-13T14:43:57;4.50;;;3.00;;
15595;SDS011;7898;48.658;9.068;2023-10-13T14:46:30;5.30;;;2.95;;
15595;SDS011;7898;48.658;9.068;2023-10-13T14:49:00;8.95;;;2.40;;
15595;SDS011;7898;48.658;9.068;2023-10-13T14:51:28;8.00;;;3.15;;
15595;SDS011;7898;48.658;9.068;2023-10-13T14:53:56;6.03;;;2.58;;
15595;SDS011;7898;48.658;9.068;2023-10-13T14:56:24;4.88;;;2.70;;
15595;SDS011;7898;48.658;9.068;2023-10-13T14:58:53;8.07;;;2.75;;
15595;SDS011;7898;48.658;9.068;2023-10-13T15:01:22;4.82;;;2.30;;
15595;SDS011;7898;48.658;9.068;2023-10-13T15:03:52;5.80;;;2.20;;
15595;SDS011;7898;48.658;9.068;2023-10-13T15:06:21;3.72;;;2.33;;
15595;SDS011;7898;48.658;9.068;2023-10-13T15:08:51;5.53;;;2.20;;
15595;SDS011;7898;48.658;9.068;2023-10-13T15:11:19;4.63;;;2.40;;
15595;SDS011;7898;48.658;9.068;2023-10-13T15:13:46;3.55;;;2.17;;
15595;SDS011;7898;48.658;9.068;2023-10-13T15:16:15;6.50;;;2.70;;
15595;SDS011;7898;48.658;9.068;2023-10-13T15:18:45;4.95;;;2.42;;
15595;SDS011;7898;48.658;9.068;2023-10-13T15:21:18;6.85;;;2.83;;
15595;SDS011;7898;48.658;9.068;2023-10-13T15:23:46;3.92;;;2.20;;
15595;SDS011;7898;48.658;9.068;2023-10-13T15:26:13;7.22;;;2.85;;
15595;SDS011;7898;48.658;9.068;2023-10-13T15:28:40;4.85;;;2.25;;
15595;SDS011;7898;48.658;9.068;2023-10-13T15:31:13;5.43;;;2.50;;
15595;SDS011;7898;48.658;9.068;2023-10-13T15:33:52;5.28;;;2.33;;
15595;SDS011;7898;48.658;9.068;2023-10-13T15:36:21;6.60;;;2.55;;
15595;SDS011;7898;48.658;9.068;2023-10-13T15:38:49;4.15;;;2.03;;
15595;SDS011;7898;48.658;9.068;2023-10-13T15:41:26;5.93;;;2.47;;